Time;durP1;ratioP1;P1;durP2;ratioP2;P2;SDS_P1;SDS_P2;PMS_P1;PMS_P2;Temp;Humidity;BMP_temperature;BMP_pressure;BME280_temperature;BME280_humidity;BME280_pressure;Samples;Min_cycle;Max_cycle;Signal;HPM_P1;HPM_P2
2022/11/17 00:00:18;;;;;;;16.38;10.82;;;;;;;1.07;100.00;94293.34;1035317;28;20037;-70
2022/11/17 00:00:48;;;;;;;19.80;12.35;;;;;;;1.16;100.00;94296.31;1035303;28;20022;-70
2022/11/17 00:01:20;;;;;;;20.35;12.13;;;;;;;1.11;100.00;94280.75;1039335;28;20029;-70
2022/11/17 00:01:50;;;;;;;16.50;10.43;;;;;;;1.20;100.00;94299.19;1031318;28;20048;-72
2022/11/17 00:02:21;;;;;;;20.25;10.95;;;;;;;1.24;100.00;94295.91;1030183;28;21034;-70
2022/11/17 00:02:51;;;;;;;20.48;11.45;;;;;;;1.27;100.00;94295.41;1034947;28;20053;-70
2022/11/17 00:03:21;;;;;;;18.98;11.60;;;;;;;1.32;100.00;94297.28;1030900;28;20049;-70
2022/11/17 00:03:52;;;;;;;16.80;10.88;;;;;;;1.37;100.00;94299.91;1035300;28;20022;-70
2022/11/17 00:04:29;;;;;;;18.75;11.77;;;;;;;1.38;100.00;94293.75;1030995;28;20034;-70
2022/11/17 00:04:59;;;;;;;17.06;10.90;;;;;;;1.43;100.00;94298.97;1023875;28;20026;-70
2022/11/17 00:05:29;;;;;;;18.70;11.13;;;;;;;1.46;100.00;94303.66;1028599;28;20026;-70
2022/11/17 00:06:03;;;;;;;22.92;11.30;;;;;;;1.49;100.00;94294.66;1031856;28;20018;-70
2022/11/17 00:06:34;;;;;;;16.35;10.88;;;;;;;1.51;100.00;94295.97;1033288;28;20050;-70
2022/11/17 00:07:04;;;;;;;15.63;10.55;;;;;;;1.55;100.00;94291.09;1042386;28;20326;-70
2022/11/17 00:07:35;;;;;;;18.45;11.88;;;;;;;1.58;100.00;94298.38;1039047;28;20019;-70
2022/11/17 00:08:05;;;;;;;19.50;11.52;;;;;;;1.58;100.00;94299.16;1039575;28;20024;-70
2022/11/17 00:08:36;;;;;;;16.95;11.25;;;;;;;1.60;100.00;94299.69;1039515;28;20025;-70
2022/11/17 00:09:10;;;;;;;19.90;11.73;;;;;;;1.60;100.00;94294.50;1042462;28;20779;-70
2022/11/17 00:09:41;;;;;;;19.25;12.45;;;;;;;1.59;100.00;94287.78;1039366;28;20148;-70
2022/11/17 00:10:12;;;;;;;20.45;11.40;;;;;;;1.63;100.00;94296.59;1035097;28;20261;-70
2022/11/17 00:10:42;;;;;;;20.92;11.57;;;;;;;1.65;100.00;94294.56;1025714;28;20595;-71
2022/11/17 00:11:12;;;;;;;18.83;11.75;;;;;;;1.68;100.00;94295.09;1029586;28;20110;-72
2022/11/17 00:15:00;;;;;;;20.10;12.25;;;;;;;1.74;100.00;94288.97;1039469;28;20048;-70
2022/11/17 00:15:30;;;;;;;19.92;12.00;;;;;;;1.79;100.00;94289.03;1035098;28;20315;-70
2022/11/17 00:16:01;;;;;;;17.25;10.50;;;;;;;1.76;100.00;94292.09;1034736;28;20034;-69
2022/11/17 00:16:31;;;;;;;19.70;10.52;;;;;;;1.80;100.00;94298.34;1027344;28;20563;-70
2022/11/17 00:17:09;;;;;;;17.63;10.82;;;;;;;1.79;100.00;94289.03;1031070;28;20579;-70
2022/11/17 00:17:40;;;;;;;17.83;10.63;;;;;;;1.82;100.00;94289.31;1039009;28;20029;-70
2022/11/17 00:21:40;;;;;;;16.08;9.58;;;;;;;1.92;100.00;94295.63;1041285;28;20275;-70
2022/11/17 00:22:11;;;;;;;18.63;9.40;;;;;;;1.92;100.00;94296.41;1036843;28;20034;-70
2022/11/17 00:22:41;;;;;;;15.02;9.38;;;;;;;1.95;100.00;94292.56;1036032;28;20360;-70
2022/11/17 00:23:12;;;;;;;15.18;9.23;;;;;;;1.95;100.00;94293.31;1038162;28;20025;-70
2022/11/17 00:23:48;;;;;;;15.70;8.82;;;;;;;1.97;100.00;94290.47;1039332;28;20036;-70
2022/11/17 00:24:19;;;;;;;14.88;9.00;;;;;;;1.97;100.00;94288.69;1034816;28;20029;-70
2022/11/17 00:24:49;;;;;;;13.90;9.15;;;;;;;1.96;100.00;94287.13;1031477;28;20269;-70
2022/11/17 00:25:20;;;;;;;14.38;9.27;;;;;;;1.90;100.00;94282.91;1031674;28;20701;-70
2022/11/17 00:25:50;;;;;;;15.50;9.93;;;;;;;1.91;100.00;94292.22;1035262;28;20026;-70
2022/11/17 00:26:22;;;;;;;13.60;8.60;;;;;;;1.94;100.00;94294.34;1026885;28;20023;-70
2022/11/17 00:27:02;;;;;;;12.38;8.55;;;;;;;1.92;100.00;94291.22;1027189;28;20143;-70
2022/11/17 00:27:32;;;;;;;12.63;8.43;;;;;;;1.92;100.00;94286.06;1025453;28;20278;-69
2022/11/17 00:28:03;;;;;;;14.68;9.23;;;;;;;1.94;100.00;94291.75;1029947;28;20282;-69
2022/11/17 00:28:33;;;;;;;10.90;7.53;;;;;;;1.94;100.00;94284.00;1031170;28;20025;-70
2022/11/17 00:29:04;;;;;;;15.20;8.70;;;;;;;1.96;100.00;94287.13;1032345;28;20022;-70
2022/11/17 00:29:34;;;;;;;15.55;8.82;;;;;;;1.99;100.00;94284.06;1030889;28;20109;-70
2022/11/17 00:30:06;;;;;;;13.73;8.95;;;;;;;2.01;100.00;94279.44;1031339;28;20035;-70
2022/11/17 00:34:05;;;;;;;13.52;8.48;;;;;;;2.02;100.00;94270.63;1035436;28;20033;-69
2022/11/17 00:34:35;;;;;;;17.33;8.55;;;;;;;2.04;100.00;94278.91;1033271;28;20100;-70
2022/11/17 00:35:06;;;;;;;14.48;8.57;;;;;;;2.05;100.00;94274.53;1038301;28;20791;-70
2022/11/17 00:35:36;;;;;;;15.05;8.20;;;;;;;2.04;100.00;94278.91;1039258;28;20049;-70
2022/11/17 00:36:07;;;;;;;14.77;8.02;;;;;;;2.01;100.00;94271.66;1039191;28;20037;-70
2022/11/17 00:36:42;;;;;;;11.95;7.82;;;;;;;2.05;100.00;94274.53;1037297;28;20432;-70
2022/11/17 00:37:13;;;;;;;15.93;9.30;;;;;;;2.07;100.00;94270.66;1023401;28;20106;-70
2022/11/17 00:38:35;;;;;;;13.60;9.05;;;;;;;2.11;100.00;94271.75;1026750;28;20037;-70
2022/11/17 00:39:09;;;;;;;12.23;8.23;;;;;;;2.10;100.00;94267.59;1033312;28;20265;-70
2022/11/17 00:39:39;;;;;;;14.32;8.50;;;;;;;2.06;100.00;94274.28;1031205;28;20249;-70
2022/11/17 00:40:10;;;;;;;12.23;8.20;;;;;;;2.09;100.00;94271.22;1030133;28;20068;-70
2022/11/17 00:40:41;;;;;;;13.02;8.95;;;;;;;2.09;100.00;94276.38;1030881;28;20044;-70
2022/11/17 00:41:11;;;;;;;12.73;8.18;;;;;;;2.08;100.00;94267.06;1035118;28;20268;-70
2022/11/17 00:41:42;;;;;;;13.57;8.55;;;;;;;2.11;100.00;94268.38;1037328;28;20021;-71
2022/11/17 00:42:12;;;;;;;14.15;8.52;;;;;;;2.11;100.00;94266.59;1035860;28;20480;-70
2022/11/17 00:42:42;;;;;;;14.32;9.05;;;;;;;2.11;100.00;94269.16;1034743;28;20020;-70
2022/11/17 00:43:13;;;;;;;13.48;8.60;;;;;;;2.13;100.00;94266.31;1035016;28;20029;-70
2022/11/17 00:43:43;;;;;;;14.32;8.18;;;;;;;1.94;100.00;94242.59;1039504;28;20060;-70
2022/11/17 00:44:14;;;;;;;14.07;8.77;;;;;;;2.11;100.00;94270.94;1039130;28;20029;-70
2022/11/17 00:44:44;;;;;;;11.80;8.13;;;;;;;2.10;100.00;94272.75;1035067;28;20033;-70
2022/11/17 00:45:15;;;;;;;14.57;8.90;;;;;;;2.10;100.00;94271.97;1033853;28;20034;-70
2022/11/17 00:45:45;;;;;;;13.77;8.55;;;;;;;2.00;100.00;94251.97;1034945;28;20026;-69
2022/11/17 00:46:15;;;;;;;14.23;9.70;;;;;;;2.14;100.00;94267.88;1035321;28;20021;-70
2022/11/17 00:46:48;;;;;;;12.63;8.77;;;;;;;2.15;100.00;94271.25;1042265;28;20107;-71
2022/11/17 00:47:19;;;;;;;14.25;8.35;;;;;;;2.17;100.00;94264.03;1034973;28;20280;-70
2022/11/17 00:47:49;;;;;;;14.32;9.07;;;;;;;2.20;100.00;94273.88;1039181;28;20032;-70
2022/11/17 00:48:20;;;;;;;12.50;8.25;;;;;;;2.23;100.00;94270.81;1038583;28;20025;-70
2022/11/17 00:48:50;;;;;;;13.90;9.10;;;;;;;2.23;100.00;94278.56;1034738;28;20021;-70
2022/11/17 00:49:24;;;;;;;12.73;8.32;;;;;;;2.27;100.00;94272.63;1038827;28;20040;-70
2022/11/17 00:49:54;;;;;;;14.35;9.40;;;;;;;2.29;100.00;94280.94;1026786;28;20037;-69
2022/11/17 00:50:25;;;;;;;15.35;8.90;;;;;;;2.29;100.00;94280.19;1023441;28;20685;-70
2022/11/17 00:50:55;;;;;;;11.60;7.82;;;;;;;2.30;100.00;94274.75;1026857;28;20089;-70
2022/11/17 00:51:26;;;;;;;13.23;8.27;;;;;;;2.30;100.00;94276.56;1027764;28;20695;-70
2022/11/17 00:51:56;;;;;;;13.18;9.02;;;;;;;2.38;100.00;94283.06;1031199;28;20011;-70
2022/11/17 00:52:27;;;;;;;12.40;8.30;;;;;;;2.40;100.00;94284.41;1029938;28;20061;-70
2022/11/17 00:52:57;;;;;;;12.75;8.07;;;;;;;2.41;100.00;94278.19;1026559;28;20652;-70
2022/11/17 00:53:28;;;;;;;11.48;7.90;;;;;;;2.43;100.00;94276.13;1027327;28;20049;-70
2022/11/17 00:53:58;;;;;;;13.77;9.02;;;;;;;2.43;100.00;94278.72;1039054;28;20017;-70
2022/11/17 00:54:29;;;;;;;12.10;8.10;;;;;;;2.45;100.00;94279.28;1039365;28;20005;-69
2022/11/17 00:54:59;;;;;;;13.88;8.85;;;;;;;2.44;100.00;94282.88;1038888;28;20033;-69
2022/11/17 00:55:29;;;;;;;14.32;8.25;;;;;;;2.43;100.00;94281.31;1038748;28;20010;-70
2022/11/17 00:56:00;;;;;;;10.80;7.78;;;;;;;2.43;100.00;94281.31;1039231;28;20038;-70
2022/11/17 00:56:30;;;;;;;13.32;8.68;;;;;;;2.40;100.00;94276.63;1039003;28;20021;-71
2022/11/17 00:57:01;;;;;;;12.82;8.40;;;;;;;2.40;100.00;94275.84;1034780;28;20054;-70
2022/11/17 00:57:32;;;;;;;15.25;8.63;;;;;;;2.40;100.00;94276.63;1030975;28;20161;-70
2022/11/17 00:58:02;;;;;;;13.70;7.70;;;;;;;2.36;100.00;94276.34;1030930;28;20018;-70
2022/11/17 00:58:34;;;;;;;12.65;8.43;;;;;;;2.39;100.00;94280.25;1031992;28;20021;-70
2022/11/17 00:59:04;;;;;;;10.50;7.82;;;;;;;2.43;100.00;94280.53;1038714;28;20112;-69
2022/11/17 00:59:35;;;;;;;14.48;8.40;;;;;;;2.43;100.00;94276.13;1034747;28;20253;-70
2022/11/17 01:00:06;;;;;;;11.57;7.75;;;;;;;2.45;100.00;94278.47;1031400;28;20099;-69
2022/11/17 01:00:37;;;;;;;12.50;8.10;;;;;;;2.44;100.00;94277.69;1034250;28;20033;-70
2022/11/17 01:01:07;;;;;;;11.93;7.88;;;;;;;2.44;100.00;94277.69;1034411;28;20628;-70
2022/11/17 01:01:38;;;;;;;13.77;8.90;;;;;;;2.45;100.00;94274.09;1034712;28;20069;-70
2022/11/17 01:02:09;;;;;;;12.80;8.07;;;;;;;2.47;100.00;94276.41;1036088;28;20079;-70
2022/11/17 01:02:39;;;;;;;13.35;8.77;;;;;;;2.47;100.00;94272.03;1037977;28;20025;-70
2022/11/17 01:03:09;;;;;;;13.52;8.25;;;;;;;2.46;100.00;94273.06;1038303;28;20025;-70
2022/11/17 01:03:40;;;;;;;11.82;8.45;;;;;;;2.47;100.00;94277.19;1041730;28;20021;-70
2022/11/17 01:04:11;;;;;;;12.35;8.25;;;;;;;2.48;100.00;94267.63;1038777;28;20017;-70
2022/11/17 01:04:42;;;;;;;13.23;8.35;;;;;;;2.48;100.00;94267.63;1038456;28;20096;-70
2022/11/17 01:05:12;;;;;;;11.98;7.97;;;;;;;2.50;100.00;94268.16;1034142;28;20264;-70
2022/11/17 01:05:42;;;;;;;10.48;7.97;;;;;;;2.48;100.00;94267.63;1037574;28;20104;-71
2022/11/17 01:06:15;;;;;;;11.02;7.75;;;;;;;2.53;100.00;94271.03;1030333;28;20097;-69
2022/11/17 01:06:47;;;;;;;13.93;8.85;;;;;;;2.49;100.00;94274.38;1034621;28;20041;-70
2022/11/17 01:07:17;;;;;;;16.05;8.88;;;;;;;2.50;100.00;94271.53;1030258;28;20940;-70
2022/11/17 01:07:48;;;;;;;12.18;8.02;;;;;;;2.50;100.00;94271.53;1030007;28;20269;-70
2022/11/17 01:08:18;;;;;;;15.93;9.98;;;;;;;2.51;100.00;94282.66;1030615;28;20018;-69
2022/11/17 01:08:49;;;;;;;18.83;12.55;;;;;;;2.53;100.00;94275.44;1031192;28;20022;-71
2022/11/17 01:09:21;;;;;;;15.85;10.60;;;;;;;2.40;100.00;94266.28;1037897;28;20063;-70
2022/11/17 01:09:51;;;;;;;22.25;13.07;;;;;;;2.53;100.00;94278.03;1030419;28;20024;-71
2022/11/17 01:10:22;;;;;;;21.17;12.95;;;;;;;2.55;100.00;94283.75;1026237;28;20360;-70
2022/11/17 01:10:52;;;;;;;17.75;11.80;;;;;;;2.54;100.00;94288.13;1026573;28;20019;-69
2022/11/17 01:11:23;;;;;;;16.42;11.43;;;;;;;2.51;100.00;94267.13;1030352;28;20034;-71
2022/11/17 01:11:53;;;;;;;16.05;10.80;;;;;;;2.62;100.00;94286.13;1034221;28;20033;-70
2022/11/17 01:12:23;;;;;;;17.60;12.10;;;;;;;2.60;100.00;94281.19;1036880;28;20030;-70
2022/11/17 01:12:54;;;;;;;19.05;12.07;;;;;;;2.63;100.00;94282.50;1039264;28;20483;-70
2022/11/17 01:13:24;;;;;;;17.95;11.93;;;;;;;2.60;100.00;94276.00;1039418;28;20557;-69
2022/11/17 01:13:56;;;;;;;19.35;12.35;;;;;;;2.66;100.00;94285.38;1043139;28;20029;-70
2022/11/17 01:14:27;;;;;;;18.45;11.15;;;;;;;2.63;100.00;94283.28;1038416;28;20020;-70
2022/11/17 01:14:58;;;;;;;19.58;12.20;;;;;;;2.59;100.00;94283.00;1034112;28;20428;-70
2022/11/17 01:15:28;;;;;;;23.08;12.10;;;;;;;2.58;100.00;94273.69;1034490;28;20746;-70
2022/11/17 01:16:03;;;;;;;16.30;11.50;;;;;;;2.57;100.00;94279.88;1034327;28;20430;-69
2022/11/17 01:16:33;;;;;;;16.33;10.82;;;;;;;2.58;100.00;94278.84;1035331;28;20071;-70
2022/11/17 01:17:04;;;;;;;18.38;11.00;;;;;;;2.56;100.00;94270.53;1038426;28;20268;-69
2022/11/17 01:17:34;;;;;;;17.52;10.98;;;;;;;2.58;100.00;94281.44;1031616;28;20424;-71
2022/11/17 01:18:05;;;;;;;18.95;11.52;;;;;;;2.59;100.00;94277.03;1030569;28;20411;-70
2022/11/17 01:18:35;;;;;;;18.33;12.52;;;;;;;2.58;100.00;94276.25;1034368;28;20073;-70
2022/11/17 01:19:06;;;;;;;23.77;14.95;;;;;;;2.55;100.00;94274.16;1034713;28;20022;-69
2022/11/17 01:19:36;;;;;;;28.35;17.15;;;;;;;2.58;100.00;94265.91;1038491;28;20697;-69
2022/11/17 01:20:07;;;;;;;27.38;18.73;;;;;;;2.58;100.00;94268.50;1035786;28;20025;-71
2022/11/17 01:20:38;;;;;;;27.23;18.08;;;;;;;2.55;100.00;94269.00;1034142;28;20010;-70
2022/11/17 01:21:10;;;;;;;23.52;15.82;;;;;;;2.51;100.00;94262.72;1038629;28;20268;-69
2022/11/17 01:21:41;;;;;;;26.42;16.15;;;;;;;2.58;100.00;94276.25;1034886;28;20577;-69
2022/11/17 01:22:11;;;;;;;24.85;15.32;;;;;;;2.58;100.00;94273.69;1026355;28;20273;-70
2022/11/17 01:22:42;;;;;;;15.55;10.50;;;;;;;2.58;100.00;94271.09;1033778;28;20061;-70
2022/11/17 01:23:12;;;;;;;15.15;10.07;;;;;;;2.56;100.00;94267.94;1033795;28;20018;-69
2022/11/17 01:23:43;;;;;;;14.13;9.95;;;;;;;2.59;100.00;94280.41;1034600;28;20026;-69
2022/11/17 01:24:15;;;;;;;17.02;10.18;;;;;;;2.63;100.00;94285.09;1038526;28;20029;-69
2022/11/17 01:24:45;;;;;;;15.85;10.40;;;;;;;2.50;100.00;94271.53;1034554;28;20471;-69
2022/11/17 01:25:15;;;;;;;18.60;11.25;;;;;;;2.63;100.00;94285.09;1026290;28;20266;-69
2022/11/17 01:25:46;;;;;;;15.75;10.80;;;;;;;2.66;100.00;94279.41;1030551;28;20030;-70
2022/11/17 01:26:21;;;;;;;15.63;9.20;;;;;;;2.65;100.00;94280.44;1030796;28;20030;-70
2022/11/17 01:26:52;;;;;;;13.30;8.23;;;;;;;2.65;100.00;94272.66;1026391;28;20119;-70
2022/11/17 01:27:22;;;;;;;12.40;7.90;;;;;;;2.63;100.00;94270.34;1026755;28;20281;-70
2022/11/17 01:27:53;;;;;;;14.95;9.98;;;;;;;2.64;100.00;94276.28;1026873;28;20026;-69
2022/11/17 01:28:23;;;;;;;12.93;8.75;;;;;;;2.63;100.00;94267.75;1031272;28;20034;-68
2022/11/17 01:28:54;;;;;;;12.75;8.90;;;;;;;2.63;100.00;94270.34;1034640;28;20037;-69
2022/11/17 01:29:24;;;;;;;11.57;8.18;;;;;;;2.63;100.00;94269.56;1034388;28;20026;-69
2022/11/17 01:29:54;;;;;;;14.65;8.50;;;;;;;2.63;100.00;94266.97;1034770;28;20602;-69
2022/11/17 01:30:25;;;;;;;16.45;9.02;;;;;;;2.66;100.00;94269.06;1030456;28;20484;-70
2022/11/17 01:31:00;;;;;;;13.25;9.57;;;;;;;2.60;100.00;94258.66;1037211;28;20752;-70
2022/11/17 01:31:32;;;;;;;14.02;9.43;;;;;;;2.66;100.00;94266.47;1026752;28;20011;-70
2022/11/17 01:32:03;;;;;;;15.82;9.45;;;;;;;2.67;100.00;94260.25;1027424;28;20281;-69
2022/11/17 01:32:33;;;;;;;13.88;9.10;;;;;;;2.69;100.00;94271.94;1029683;28;20300;-69
2022/11/17 01:33:04;;;;;;;14.57;9.50;;;;;;;2.72;100.00;94262.88;1030809;28;20053;-70
2022/11/17 01:33:34;;;;;;;15.60;10.07;;;;;;;2.74;100.00;94273.75;1034895;28;20088;-70
2022/11/17 01:34:05;;;;;;;16.40;10.68;;;;;;;2.75;100.00;94276.13;1042879;28;20021;-69
2022/11/17 01:34:35;;;;;;;24.48;11.35;;;;;;;2.79;100.00;94276.41;1043172;28;20090;-70
2022/11/17 01:35:06;;;;;;;17.83;9.95;;;;;;;2.77;100.00;94279.22;1039000;28;20021;-69
2022/11/17 01:35:36;;;;;;;16.10;8.95;;;;;;;2.79;100.00;94291.94;1038950;28;20022;-70
2022/11/17 01:36:21;;;;;;;17.33;9.45;;;;;;;2.81;100.00;94276.91;1038244;28;20025;-70
2022/11/17 01:37:40;;;;;;;13.60;8.25;;;;;;;2.86;100.00;94268.41;1034449;28;20323;-69
2022/11/17 01:38:10;;;;;;;11.35;8.30;;;;;;;2.87;100.00;94264.78;1034544;28;20269;-70
2022/11/17 01:38:41;;;;;;;16.17;9.73;;;;;;;2.89;100.00;94268.69;1033237;28;20022;-70
2022/11/17 01:39:11;;;;;;;14.38;9.85;;;;;;;2.88;100.00;94269.69;1034089;28;20026;-72
2022/11/17 01:39:42;;;;;;;15.27;10.23;;;;;;;2.89;100.00;94271.28;1034399;28;20017;-71
2022/11/17 01:40:13;;;;;;;21.60;10.85;;;;;;;2.90;100.00;94275.41;1030056;28;20424;-68
2022/11/17 01:40:43;;;;;;;16.10;11.15;;;;;;;2.86;100.00;94264.00;1030403;28;20023;-69
2022/11/17 01:41:24;;;;;;;13.32;9.38;;;;;;;2.94;100.00;94268.69;1026701;28;20023;-69
2022/11/17 01:41:54;;;;;;;13.35;9.43;;;;;;;2.97;100.00;94264.84;1031846;28;20105;-70
2022/11/17 01:42:25;;;;;;;13.23;9.05;;;;;;;2.96;100.00;94264.06;1035605;28;20261;-70
2022/11/17 01:42:55;;;;;;;17.48;9.80;;;;;;;2.98;100.00;94259.38;1036091;28;20022;-71
2022/11/17 01:43:36;;;;;;;16.10;10.25;;;;;;;2.96;100.00;94256.28;1038271;28;20017;-70
2022/11/17 01:44:35;;;;;;;15.02;10.00;;;;;;;2.98;100.00;94256.03;1034564;28;20025;-69
2022/11/17 01:45:21;;;;;;;15.32;9.70;;;;;;;2.97;100.00;94255.25;1030578;28;20283;-70
2022/11/17 01:45:51;;;;;;;16.70;10.77;;;;;;;2.98;100.00;94256.03;1033876;28;21002;-71
2022/11/17 01:46:38;;;;;;;14.93;9.43;;;;;;;2.98;100.00;94253.44;1026727;28;20325;-71
2022/11/17 01:47:38;;;;;;;15.93;9.30;;;;;;;2.99;100.00;94248.00;1026419;28;20846;-70
2022/11/17 01:48:08;;;;;;;14.60;8.98;;;;;;;3.01;100.00;94243.34;1028459;28;20275;-68
2022/11/17 01:48:40;;;;;;;15.38;9.38;;;;;;;2.99;100.00;94242.84;1030415;28;21024;-69
2022/11/17 01:49:13;;;;;;;13.90;8.93;;;;;;;3.00;100.00;94236.63;1030801;28;20030;-70
2022/11/17 01:49:44;;;;;;;14.50;9.30;;;;;;;2.95;100.00;94231.41;1026956;28;20258;-70
2022/11/17 01:50:26;;;;;;;13.23;9.60;;;;;;;3.00;100.00;94243.59;1027401;28;20305;-69
2022/11/17 01:50:56;;;;;;;14.77;8.85;;;;;;;2.99;100.00;94240.25;1034464;28;20053;-70
2022/11/17 01:51:26;;;;;;;14.50;9.75;;;;;;;3.00;100.00;94239.19;1027998;28;20258;-70
2022/11/17 01:52:03;;;;;;;15.43;8.90;;;;;;;3.03;100.00;94245.69;1030021;28;20114;-70
2022/11/17 01:52:34;;;;;;;15.80;9.02;;;;;;;3.00;100.00;94248.78;1038074;28;20324;-70
2022/11/17 01:53:07;;;;;;;13.25;9.40;;;;;;;3.05;100.00;94251.41;1038461;28;20268;-71
2022/11/17 01:53:38;;;;;;;18.98;10.23;;;;;;;3.05;100.00;94247.00;1042295;28;20052;-70
2022/11/17 01:54:08;;;;;;;14.20;8.98;;;;;;;3.04;100.00;94245.44;1040746;28;20272;-71
2022/11/17 01:54:39;;;;;;;14.43;9.15;;;;;;;3.04;100.00;94244.66;1037914;28;20044;-70
2022/11/17 01:55:10;;;;;;;13.13;8.90;;;;;;;3.01;100.00;94240.75;1037110;28;20102;-70
2022/11/17 01:55:41;;;;;;;12.38;8.60;;;;;;;3.01;100.00;94235.56;1041740;28;20491;-70
2022/11/17 01:56:15;;;;;;;12.48;8.40;;;;;;;2.99;100.00;94240.25;1045689;28;20024;-70
2022/11/17 01:56:46;;;;;;;15.90;9.23;;;;;;;3.01;100.00;94240.75;1041835;28;20861;-70
2022/11/17 01:57:22;;;;;;;15.18;9.00;;;;;;;2.92;100.00;94234.50;1039700;28;20317;-71
2022/11/17 01:58:05;;;;;;;14.20;8.82;;;;;;;2.94;100.00;94223.88;1034612;28;20056;-70
2022/11/17 01:58:37;;;;;;;11.13;8.23;;;;;;;3.00;100.00;94248.78;1029325;28;20365;-70
2022/11/17 01:59:34;;;;;;;14.18;8.55;;;;;;;2.98;100.00;94236.06;1029199;28;20770;-70
2022/11/17 02:00:06;;;;;;;13.73;8.38;;;;;;;2.95;100.00;94231.41;1021398;28;21151;-70
2022/11/17 02:00:37;;;;;;;10.88;7.13;;;;;;;2.94;100.00;94234.25;1024770;28;20281;-70
2022/11/17 02:01:07;;;;;;;12.38;8.48;;;;;;;2.91;100.00;94227.75;1029243;28;20296;-69
2022/11/17 02:01:54;;;;;;;13.88;8.85;;;;;;;2.96;100.00;94234.78;1027329;28;20084;-70
2022/11/17 02:02:24;;;;;;;14.68;8.32;;;;;;;2.93;100.00;94238.66;1031999;28;20082;-71
2022/11/17 02:02:55;;;;;;;11.77;8.13;;;;;;;2.91;100.00;94232.94;1030733;28;20272;-70
2022/11/17 02:03:26;;;;;;;16.42;8.75;;;;;;;2.88;100.00;94230.84;1022245;29;20027;-70
2022/11/17 02:03:56;;;;;;;14.13;8.75;;;;;;;2.87;100.00;94229.28;1028858;28;20081;-70
2022/11/17 02:04:48;;;;;;;14.23;9.07;;;;;;;2.86;100.00;94224.38;1032225;28;20511;-71
2022/11/17 02:05:27;;;;;;;11.70;7.93;;;;;;;2.86;100.00;94222.56;1030632;28;20022;-69
2022/11/17 02:06:07;;;;;;;15.02;8.20;;;;;;;2.83;100.00;94215.28;1030389;28;20289;-70
2022/11/17 02:06:38;;;;;;;13.40;8.73;;;;;;;2.80;100.00;94215.78;1030560;28;20763;-70
2022/11/17 02:07:23;;;;;;;13.52;8.70;;;;;;;2.79;100.00;94214.25;1033233;28;20053;-69
2022/11/17 02:07:54;;;;;;;12.07;7.63;;;;;;;2.79;100.00;94215.00;1026201;28;20030;-70
2022/11/17 02:08:26;;;;;;;12.80;8.60;;;;;;;2.80;100.00;94213.19;1026514;28;20233;-70
2022/11/17 02:08:57;;;;;;;14.60;9.27;;;;;;;2.77;100.00;94211.09;1028137;28;20037;-69
2022/11/17 02:09:27;;;;;;;15.68;8.57;;;;;;;2.73;100.00;94194.53;1030574;28;20261;-70
2022/11/17 02:09:58;;;;;;;15.07;8.80;;;;;;;2.78;100.00;94207.47;1030340;28;20014;-70
2022/11/17 02:10:29;;;;;;;14.75;8.88;;;;;;;2.81;100.00;94205.16;1026624;28;20011;-70
2022/11/17 02:10:59;;;;;;;15.55;9.07;;;;;;;2.84;100.00;94214.25;1026608;28;20059;-69
2022/11/17 02:11:34;;;;;;;14.45;9.65;;;;;;;2.80;100.00;94203.63;1022520;28;20374;-70
2022/11/17 02:12:07;;;;;;;17.92;9.35;;;;;;;2.83;100.00;94200.53;1026227;28;20447;-70
2022/11/17 02:12:37;;;;;;;18.42;10.32;;;;;;;2.85;100.00;94205.47;1031796;28;20775;-70
2022/11/17 02:13:08;;;;;;;16.38;9.00;;;;;;;2.80;100.00;94202.84;1031235;28;20269;-70
2022/11/17 02:13:38;;;;;;;16.45;9.30;;;;;;;2.83;100.00;94204.94;1030805;28;20034;-70
2022/11/17 02:14:09;;;;;;;13.43;9.35;;;;;;;2.80;100.00;94197.66;1030076;28;20018;-69
2022/11/17 02:14:39;;;;;;;12.90;9.02;;;;;;;2.81;100.00;94202.56;1026346;28;20019;-68
2022/11/17 02:15:10;;;;;;;14.18;8.73;;;;;;;2.80;100.00;94203.63;1026649;28;20027;-69
2022/11/17 02:15:40;;;;;;;14.88;8.32;;;;;;;2.80;100.00;94205.44;1026557;28;20026;-70
2022/11/17 02:16:11;;;;;;;13.05;8.70;;;;;;;2.79;100.00;94198.69;1034401;28;20336;-69
2022/11/17 02:16:42;;;;;;;15.85;9.02;;;;;;;2.83;100.00;94202.34;1034769;28;20428;-69
2022/11/17 02:17:12;;;;;;;11.38;8.43;;;;;;;2.79;100.00;94203.88;1038411;28;20264;-70
2022/11/17 02:17:43;;;;;;;12.45;8.40;;;;;;;2.80;100.00;94200.25;1034624;28;20049;-70
2022/11/17 02:18:14;;;;;;;13.48;8.63;;;;;;;2.80;100.00;94198.44;1030522;28;20035;-69
2022/11/17 02:18:45;;;;;;;13.07;9.00;;;;;;;2.84;100.00;94203.88;1025408;28;20038;-69
2022/11/17 02:19:15;;;;;;;14.40;9.23;;;;;;;2.86;100.00;94206.25;1022388;28;20285;-69
2022/11/17 02:19:52;;;;;;;15.52;9.50;;;;;;;2.84;100.00;94206.47;1022414;29;20022;-70
2022/11/17 02:20:22;;;;;;;14.68;8.82;;;;;;;2.88;100.00;94210.13;1026760;28;20022;-71
2022/11/17 02:21:00;;;;;;;14.85;8.32;;;;;;;2.90;100.00;94220.25;1026264;28;20358;-69
2022/11/17 02:21:56;;;;;;;14.30;9.38;;;;;;;2.91;100.00;94217.38;1024219;28;20039;-68
2022/11/17 02:22:55;;;;;;;13.10;9.02;;;;;;;2.95;100.00;94220.25;1037213;28;20334;-70
2022/11/17 02:24:03;;;;;;;15.02;8.70;;;;;;;3.00;100.00;94213.28;1039014;28;20264;-69
2022/11/17 02:24:58;;;;;;;14.65;8.65;;;;;;;3.03;100.00;94217.19;1039046;28;21052;-70
2022/11/17 02:25:37;;;;;;;14.05;8.57;;;;;;;3.03;100.00;94212.78;1038707;28;20749;-70
2022/11/17 02:26:31;;;;;;;12.05;8.10;;;;;;;3.04;100.00;94208.38;1042227;28;20260;-68
2022/11/17 02:27:36;;;;;;;13.65;8.02;;;;;;;2.89;100.00;94172.84;1041610;28;20675;-69
2022/11/17 02:28:21;;;;;;;16.13;8.60;;;;;;;3.09;100.00;94200.66;1039565;28;20339;-69
2022/11/17 02:29:15;;;;;;;14.75;8.73;;;;;;;3.09;100.00;94195.47;1042564;28;20263;-70
2022/11/17 02:30:01;;;;;;;13.88;8.10;;;;;;;3.10;100.00;94188.47;1042225;28;21040;-69
2022/11/17 02:30:54;;;;;;;14.30;8.60;;;;;;;3.09;100.00;94189.50;1035332;28;20273;-69
2022/11/17 02:31:31;;;;;;;11.60;7.68;;;;;;;3.05;100.00;94179.66;1033920;28;20280;-69
2022/11/17 02:32:14;;;;;;;10.65;7.60;;;;;;;3.09;100.00;94187.69;1030389;28;20269;-70
2022/11/17 02:33:11;;;;;;;14.85;8.32;;;;;;;2.92;100.00;94158.59;1025603;28;20058;-69
2022/11/17 02:34:03;;;;;;;16.52;8.52;;;;;;;3.10;100.00;94180.69;1022677;28;20077;-68
2022/11/17 02:34:49;;;;;;;15.13;8.77;;;;;;;3.10;100.00;94176.28;1034281;28;20305;-69
2022/11/17 02:35:33;;;;;;;11.75;8.20;;;;;;;3.08;100.00;94167.97;1033823;28;20260;-71
2022/11/17 02:36:53;;;;;;;13.02;8.65;;;;;;;3.06;100.00;94168.25;1029633;28;20282;-69
2022/11/17 02:37:32;;;;;;;12.75;8.48;;;;;;;3.02;100.00;94159.44;1027594;28;20280;-69
2022/11/17 02:38:18;;;;;;;14.23;8.32;;;;;;;2.95;100.00;94148.53;1033794;28;20284;-68
2022/11/17 02:38:59;;;;;;;13.00;8.88;;;;;;;3.00;100.00;94160.69;1030864;28;20269;-69
2022/11/17 02:39:39;;;;;;;18.20;9.55;;;;;;;3.02;100.00;94156.84;1025042;28;20310;-70
2022/11/17 02:40:23;;;;;;;14.90;8.73;;;;;;;3.00;100.00;94164.06;1029280;28;20804;-70
2022/11/17 02:41:08;;;;;;;12.85;9.00;;;;;;;3.00;100.00;94158.13;1031166;28;20030;-68
2022/11/17 02:41:51;;;;;;;12.32;8.40;;;;;;;3.02;100.00;94164.59;1034397;28;20327;-69
2022/11/17 02:44:49;;;;;;;13.40;8.65;;;;;;;2.97;100.00;94151.63;1034875;28;20801;-69
2022/11/17 02:45:21;;;;;;;12.75;8.02;;;;;;;2.94;100.00;94148.75;1028771;28;20281;-70
2022/11/17 02:46:13;;;;;;;11.60;8.57;;;;;;;2.86;100.00;94129.31;1023715;28;20118;-71
2022/11/17 02:46:47;;;;;;;15.13;8.68;;;;;;;2.93;100.00;94142.81;1026587;28;20289;-70
2022/11/17 02:47:22;;;;;;;13.93;8.23;;;;;;;2.91;100.00;94137.09;1030071;28;20933;-70
2022/11/17 02:47:53;;;;;;;17.00;8.65;;;;;;;2.91;100.00;94129.31;1026542;28;20787;-70
2022/11/17 02:48:28;;;;;;;12.05;8.27;;;;;;;2.95;100.00;94132.19;1020417;28;20298;-70
2022/11/17 02:49:20;;;;;;;14.02;9.05;;;;;;;2.95;100.00;94132.97;1022826;29;20114;-70
2022/11/17 02:49:56;;;;;;;12.93;8.60;;;;;;;2.93;100.00;94119.50;1022124;29;21171;-70
2022/11/17 02:50:26;;;;;;;13.80;8.77;;;;;;;2.95;100.00;94125.22;1025965;28;20266;-69
2022/11/17 02:50:59;;;;;;;13.20;8.40;;;;;;;2.94;100.00;94117.66;1026743;28;20262;-70
2022/11/17 02:51:30;;;;;;;14.20;8.63;;;;;;;2.99;100.00;94122.88;1026708;28;20030;-70